createdAt,value
2018-07-19T00:02:15.901Z,9
2018-07-19T00:08:10.935Z,6.67
2018-07-19T00:14:05.978Z,8.79
2018-07-19T00:20:00.902Z,6.9
2018-07-19T00:25:55.900Z,10.3
2018-07-19T00:31:50.889Z,6.72
2018-07-19T00:37:45.911Z,7.77
2018-07-19T00:43:40.900Z,10.2
2018-07-19T00:49:35.930Z,8.4
2018-07-19T00:55:30.914Z,8.8
2018-07-19T01:01:25.910Z,8.13
2018-07-19T01:07:20.912Z,8.48
2018-07-19T01:13:15.947Z,7.46
2018-07-19T01:19:10.930Z,6.87
2018-07-19T01:25:05.922Z,7.67
2018-07-19T01:31:00.939Z,7.76
2018-07-19T01:36:56.014Z,6.34
2018-07-19T01:42:50.928Z,9.01
2018-07-19T01:48:45.934Z,9.49
2018-07-19T01:54:41.001Z,9.89
2018-07-19T02:00:35.953Z,8.76
2018-07-19T02:06:30.991Z,8.38
2018-07-19T02:12:26.044Z,8.64
2018-07-19T02:18:20.965Z,10.49
2018-07-19T02:24:16.018Z,10.16
2018-07-19T02:30:10.987Z,10.97
2018-07-19T02:36:06.020Z,8.83
2018-07-19T02:42:01.066Z,13
2018-07-19T02:47:55.952Z,17.57
2018-07-19T02:53:51.039Z,10.04
2018-07-19T02:59:45.994Z,9.14
2018-07-19T03:05:41.031Z,11.25
2018-07-19T03:11:36.004Z,13.3
2018-07-19T03:17:31.066Z,10.06
2018-07-19T03:23:25.990Z,10.44
2018-07-19T03:29:21.011Z,9.56
2018-07-19T03:35:16.040Z,9.27
2018-07-19T03:41:11.023Z,10.4
2018-07-19T03:47:06.013Z,11.48
2018-07-19T03:53:01.046Z,10.69
2018-07-19T03:58:56.019Z,10.06
2018-07-19T04:04:51.111Z,9.33
2018-07-19T04:10:46.090Z,9.18
2018-07-19T04:16:41.054Z,8.83
2018-07-19T04:22:36.058Z,10.54
2018-07-19T04:28:31.085Z,7.62
2018-07-19T04:34:26.075Z,13.55
2018-07-19T04:40:21.099Z,10.46
2018-07-19T04:46:16.063Z,11.05
2018-07-19T04:52:11.093Z,7.63
2018-07-19T04:58:06.048Z,10.27
2018-07-19T05:04:01.074Z,13.62
2018-07-19T05:09:56.075Z,13.59
2018-07-19T05:15:51.126Z,15.14
2018-07-19T05:21:46.149Z,9.63
2018-07-19T05:27:41.113Z,10.7
2018-07-19T05:33:36.188Z,12.78
2018-07-19T05:39:31.154Z,9.37
2018-07-19T05:45:26.171Z,8.79
2018-07-19T05:51:21.130Z,15.11
2018-07-19T05:57:16.123Z,11.06
2018-07-19T06:03:11.108Z,12.19
2018-07-19T06:09:06.147Z,10.09
2018-07-19T06:15:01.127Z,10.96
2018-07-19T06:20:56.141Z,18.37
2018-07-19T06:26:51.147Z,17.43
2018-07-19T06:32:46.198Z,14.62
2018-07-19T06:38:41.154Z,16.5
2018-07-19T06:44:36.212Z,8.65
2018-07-19T06:50:31.195Z,14.63
2018-07-19T06:56:26.197Z,12.41
2018-07-19T07:02:21.157Z,13.75
2018-07-19T07:08:16.274Z,13.23
2018-07-19T07:14:12.608Z,10.59
2018-07-19T07:20:06.185Z,11.63
2018-07-19T07:26:01.209Z,11.74
2018-07-19T07:31:56.363Z,9.41
2018-07-19T07:37:51.189Z,14.24
2018-07-19T07:43:46.200Z,12.42
2018-07-19T07:49:41.248Z,11.9
2018-07-19T07:55:36.180Z,12.95
2018-07-19T08:01:31.241Z,12.47
2018-07-19T08:07:26.319Z,13.96
2018-07-19T08:13:21.213Z,15.48
2018-07-19T08:19:16.244Z,13.03
2018-07-19T08:25:11.242Z,16.24
2018-07-19T08:31:06.308Z,12.77
2018-07-19T08:37:01.234Z,13.09
2018-07-19T08:42:56.299Z,14.52
2018-07-19T08:48:51.308Z,8.21
2018-07-19T08:54:46.248Z,10
2018-07-19T09:00:41.241Z,8.17
2018-07-19T09:06:36.266Z,9.45
2018-07-19T09:12:31.261Z,12.93
2018-07-19T09:18:26.326Z,5.56
2018-07-19T09:24:21.308Z,7.27
2018-07-19T09:30:16.315Z,6.5
2018-07-19T09:36:11.341Z,5.5
2018-07-19T09:42:06.325Z,4.37
2018-07-19T09:48:01.357Z,3.52
2018-07-19T09:53:56.318Z,4.11
2018-07-19T09:59:51.336Z,3.73
2018-07-19T10:05:46.388Z,4.73
2018-07-19T10:11:41.334Z,3.7
2018-07-19T10:17:36.356Z,4.11
2018-07-19T10:23:31.458Z,3.96
2018-07-19T10:29:26.365Z,4.63
2018-07-19T10:35:21.341Z,3.65
2018-07-19T10:41:16.406Z,3.94
2018-07-19T10:47:11.435Z,4.68
2018-07-19T10:53:06.456Z,49.8
2018-07-19T10:59:01.355Z,25.97
2018-07-19T11:04:56.423Z,2.42
2018-07-19T11:10:51.387Z,3.35
2018-07-19T11:16:46.437Z,2.56
2018-07-19T11:22:41.425Z,2.11
2018-07-19T11:28:36.392Z,3.09
2018-07-19T11:34:31.414Z,2.72
2018-07-19T11:40:26.412Z,2.43
2018-07-19T11:46:21.469Z,11.18
2018-07-19T11:52:16.434Z,4.21
2018-07-19T11:58:11.433Z,4.17
2018-07-19T12:04:06.432Z,3.61
2018-07-19T12:10:01.503Z,5.15
2018-07-19T12:15:56.414Z,3.63
2018-07-19T12:21:51.479Z,3.4
2018-07-19T12:27:46.496Z,6.51
2018-07-19T12:33:41.445Z,8.14
2018-07-19T12:39:36.483Z,4.3
2018-07-19T12:45:31.462Z,3.94
2018-07-19T12:51:26.513Z,2.96
2018-07-19T12:57:21.548Z,3.03
2018-07-19T13:03:16.499Z,3.59
2018-07-19T13:09:22.748Z,4.54
2018-07-19T13:15:06.581Z,2.67
2018-07-19T13:21:01.489Z,2.3
2018-07-19T13:26:56.511Z,4.28
2018-07-19T13:32:53.525Z,3.21
2018-07-19T13:38:48.664Z,2.72
2018-07-19T13:44:41.536Z,2.66
2018-07-19T13:50:37.193Z,2.85
2018-07-19T13:56:31.560Z,3.93
2018-07-19T14:02:26.565Z,2.87
2018-07-19T14:08:21.556Z,2.19
2018-07-19T14:14:16.602Z,3.39
2018-07-19T14:20:11.682Z,1.87
2018-07-19T14:26:06.603Z,2.24
2018-07-19T14:32:01.680Z,2.16
2018-07-19T14:37:56.626Z,2.28
2018-07-19T14:43:51.577Z,2.43
2018-07-19T14:49:46.605Z,1.88
2018-07-19T14:55:41.573Z,2.06
2018-07-19T15:01:36.592Z,1.9
2018-07-19T15:07:31.669Z,2.13
2018-07-19T15:13:26.627Z,1.75
2018-07-19T15:19:21.606Z,1.89
2018-07-19T15:25:16.613Z,3.52
2018-07-19T15:31:11.653Z,2.43
2018-07-19T15:37:06.613Z,2.91
2018-07-19T15:43:01.618Z,2.4
2018-07-19T15:48:56.654Z,2.39
2018-07-19T15:54:51.638Z,2.26
2018-07-19T16:00:46.624Z,4.4
2018-07-19T16:06:41.665Z,2.84
2018-07-19T16:12:36.779Z,3.8
2018-07-19T16:18:31.642Z,6.99
2018-07-19T16:24:26.669Z,3.58
2018-07-19T16:30:21.649Z,2.81
2018-07-19T16:36:16.665Z,2.58
2018-07-19T16:42:11.679Z,3.32
2018-07-19T16:48:06.699Z,7.39
2018-07-19T16:54:01.763Z,3.05
2018-07-19T16:59:56.835Z,4.55
2018-07-19T17:05:51.711Z,2.96
2018-07-19T17:11:46.739Z,2.81
2018-07-19T17:17:41.711Z,4.25
2018-07-19T17:23:36.718Z,6.61
2018-07-19T17:29:31.761Z,6.16
2018-07-19T17:35:27.450Z,2.71
2018-07-19T17:41:21.759Z,4.1
2018-07-19T17:47:16.756Z,4
2018-07-19T17:53:11.749Z,4.02
2018-07-19T17:59:06.758Z,3.16
2018-07-19T18:05:01.784Z,5.62
2018-07-19T18:10:56.792Z,3.53
2018-07-19T18:16:51.821Z,6.18
2018-07-19T18:22:46.785Z,7.01
2018-07-19T18:28:41.781Z,5.81
2018-07-19T18:34:36.796Z,3.61
2018-07-19T18:40:31.862Z,5.76
2018-07-19T18:46:26.816Z,5.04
2018-07-19T18:52:21.933Z,4.14
2018-07-19T18:58:16.852Z,5.94
2018-07-19T19:04:11.836Z,6.81
2018-07-19T19:10:06.819Z,11.87
2018-07-19T19:16:01.821Z,8.01
2018-07-19T19:21:56.831Z,8.21
2018-07-19T19:27:51.819Z,5.5
2018-07-19T19:33:46.833Z,5.2
2018-07-19T19:39:41.817Z,5.94
2018-07-19T19:45:36.835Z,5.51
2018-07-19T19:51:31.837Z,5.49
2018-07-19T19:57:26.851Z,5.53
2018-07-19T20:03:21.884Z,6.85
2018-07-19T20:09:16.852Z,8.87
2018-07-19T20:15:11.898Z,7.9
2018-07-19T20:21:06.858Z,5.93
2018-07-19T20:27:01.890Z,5.79
2018-07-19T20:32:56.856Z,5.66
2018-07-19T20:38:51.911Z,7.48
2018-07-19T20:44:46.964Z,7.98
2018-07-19T20:50:41.962Z,8.07
2018-07-19T20:56:36.937Z,6.07
2018-07-19T21:02:31.916Z,6.5
2018-07-19T21:08:26.950Z,10.07
2018-07-19T21:14:26.417Z,10.88
2018-07-19T21:20:16.915Z,7.18
2018-07-19T21:26:12.056Z,10.05
2018-07-19T21:32:06.980Z,7.48
2018-07-19T21:38:01.924Z,9.93
2018-07-19T21:43:56.990Z,9.95
2018-07-19T21:49:52.074Z,8.79
2018-07-19T21:55:46.946Z,11.54
2018-07-19T22:01:41.946Z,8.33
2018-07-19T22:07:36.986Z,7.71
2018-07-19T22:13:31.976Z,8.57
2018-07-19T22:19:26.950Z,19.41
2018-07-19T22:25:21.969Z,12.25
2018-07-19T22:31:16.982Z,8.58
2018-07-19T22:37:12.019Z,13.08
2018-07-19T22:43:07.001Z,10.07
2018-07-19T22:49:02.004Z,11.78
2018-07-19T22:54:56.972Z,12.1
2018-07-19T23:00:52.054Z,13.39
2018-07-19T23:06:47.021Z,11.62
2018-07-19T23:12:42.022Z,12.07
2018-07-19T23:18:37.006Z,10.17
2018-07-19T23:24:32.020Z,9.37
2018-07-19T23:30:27.018Z,10.71
2018-07-19T23:36:22.083Z,9.03
2018-07-19T23:42:17.086Z,10.38
2018-07-19T23:48:12.037Z,12.67
2018-07-19T23:54:07.051Z,11.65
